createdAt,value
2023-04-08T00:01:46.872Z,6.84
2023-04-08T00:04:16.516Z,6.85
2023-04-08T00:06:45.998Z,6.89
2023-04-08T00:09:15.312Z,6.86
2023-04-08T00:11:44.651Z,6.89
2023-04-08T00:14:13.937Z,6.90
2023-04-08T00:16:43.382Z,6.99
2023-04-08T00:19:12.758Z,6.93
2023-04-08T00:21:42.098Z,6.97
2023-04-08T00:24:11.534Z,6.96
2023-04-08T00:26:41.658Z,6.96
2023-04-08T00:29:10.929Z,6.98
2023-04-08T00:31:40.344Z,6.95
2023-04-08T00:34:09.681Z,6.95
2023-04-08T00:36:39.071Z,6.90
2023-04-08T00:39:08.549Z,6.85
2023-04-08T00:41:38.208Z,6.83
2023-04-08T00:44:08.329Z,6.78
2023-04-08T00:46:40.802Z,6.77
2023-04-08T00:49:10.464Z,6.77
2023-04-08T00:51:40.230Z,6.78
2023-04-08T00:54:09.525Z,6.77
2023-04-08T00:56:39.171Z,6.73
2023-04-08T00:59:08.516Z,6.69
2023-04-08T01:01:56.689Z,6.68
2023-04-08T01:04:47.166Z,6.66
2023-04-08T01:07:31.683Z,6.64
2023-04-08T01:10:10.771Z,6.65
2023-04-08T01:12:43.261Z,6.64
2023-04-08T01:15:13.418Z,6.67
2023-04-08T01:17:43.137Z,6.71
2023-04-08T01:20:12.892Z,6.71
2023-04-08T01:22:54.901Z,6.79
2023-04-08T01:25:27.438Z,6.77
2023-04-08T01:27:58.413Z,6.76
2023-04-08T01:30:28.589Z,6.80
2023-04-08T01:33:01.402Z,6.83
2023-04-08T01:35:32.551Z,6.84
2023-04-08T01:38:02.874Z,6.86
2023-04-08T01:40:33.686Z,6.90
2023-04-08T01:43:06.276Z,6.91
2023-04-08T01:45:35.829Z,6.92
2023-04-08T01:48:05.619Z,6.94
2023-04-08T01:50:35.367Z,6.99
2023-04-08T01:53:05.631Z,6.97
2023-04-08T01:55:37.727Z,7.00
2023-04-08T01:58:08.453Z,7.00
2023-04-08T02:00:38.188Z,7.00
2023-04-08T02:03:08.008Z,7.03
2023-04-08T02:05:37.569Z,7.04
2023-04-08T02:08:07.139Z,7.03
2023-04-08T02:10:36.422Z,7.03
2023-04-08T02:13:06.814Z,7.04
2023-04-08T02:15:37.243Z,7.05
2023-04-08T02:18:15.664Z,7.08
2023-04-08T02:20:49.073Z,7.16
2023-04-08T02:23:22.954Z,7.15
2023-04-08T02:25:54.055Z,7.09
2023-04-08T02:28:26.868Z,7.12
2023-04-08T02:30:57.056Z,7.12
2023-04-08T02:33:27.170Z,7.15
2023-04-08T02:35:57.350Z,7.13
2023-04-08T02:38:28.319Z,7.12
2023-04-08T02:40:58.533Z,7.10
2023-04-08T02:43:29.428Z,7.11
2023-04-08T02:46:04.227Z,7.12
2023-04-08T02:48:34.410Z,7.10
2023-04-08T02:51:04.255Z,7.16
2023-04-08T02:53:33.506Z,7.14
2023-04-08T02:56:02.987Z,7.11
2023-04-08T02:58:32.535Z,7.10
2023-04-08T03:01:01.942Z,7.13
2023-04-08T03:03:31.418Z,7.13
2023-04-08T03:06:00.840Z,7.14
2023-04-08T03:08:30.655Z,7.11
2023-04-08T03:11:00.306Z,7.12
2023-04-08T03:13:29.909Z,7.13
2023-04-08T03:15:59.531Z,7.13
2023-04-08T03:18:28.825Z,7.14
2023-04-08T03:20:58.152Z,7.15
2023-04-08T03:23:27.435Z,7.13
2023-04-08T03:25:56.769Z,7.12
2023-04-08T03:28:26.338Z,7.13
2023-04-08T03:30:55.778Z,7.13
2023-04-08T03:33:25.215Z,7.17
2023-04-08T03:35:55.938Z,7.16
2023-04-08T03:38:25.362Z,7.16
2023-04-08T03:40:55.047Z,7.17
2023-04-08T03:43:25.593Z,7.19
2023-04-08T03:45:56.563Z,7.21
2023-04-08T03:48:25.892Z,7.21
2023-04-08T03:50:55.184Z,7.17
2023-04-08T03:53:24.572Z,7.24
2023-04-08T03:55:53.864Z,7.21
2023-04-08T03:58:23.178Z,7.23
2023-04-08T04:00:52.467Z,7.22
2023-04-08T04:03:21.934Z,7.30
2023-04-08T04:05:51.593Z,7.20
2023-04-08T04:08:20.973Z,7.14
2023-04-08T04:10:50.277Z,7.15
2023-04-08T04:13:19.698Z,7.18
2023-04-08T04:15:49.187Z,7.19
2023-04-08T04:18:19.341Z,7.16
2023-04-08T04:20:48.642Z,7.17
2023-04-08T04:23:17.976Z,7.16
2023-04-08T04:25:47.520Z,7.16
2023-04-08T04:28:17.244Z,7.23
2023-04-08T04:30:46.607Z,7.18
2023-04-08T04:33:15.952Z,7.18
2023-04-08T04:35:45.455Z,7.18
2023-04-08T04:38:14.945Z,7.16
2023-04-08T04:40:44.392Z,7.17
2023-04-08T04:43:13.682Z,7.18
2023-04-08T04:45:42.946Z,7.18
2023-04-08T04:48:12.243Z,7.18
2023-04-08T04:50:41.496Z,7.15
2023-04-08T04:53:10.864Z,7.10
2023-04-08T04:55:40.451Z,7.09
2023-04-08T04:58:09.715Z,7.09
2023-04-08T05:00:38.970Z,7.05
2023-04-08T05:03:08.554Z,7.04
2023-04-08T05:05:38.329Z,7.09
2023-04-08T05:08:07.907Z,7.12
2023-04-08T05:10:37.251Z,7.17
2023-04-08T05:13:06.851Z,7.12
2023-04-08T05:15:36.128Z,7.15
2023-04-08T05:18:05.709Z,7.10
2023-04-08T05:20:35.392Z,7.09
2023-04-08T05:23:04.683Z,7.08
2023-04-08T05:25:33.998Z,7.06
2023-04-08T05:28:04.283Z,7.04
2023-04-08T05:30:33.641Z,6.97
2023-04-08T05:33:02.961Z,6.96
2023-04-08T05:35:32.368Z,6.97
2023-04-08T05:38:01.637Z,6.98
2023-04-08T05:40:31.247Z,6.94
2023-04-08T05:43:00.628Z,6.96
2023-04-08T05:45:30.934Z,6.96
2023-04-08T05:48:00.393Z,6.87
2023-04-08T05:50:29.671Z,6.88
2023-04-08T05:52:58.946Z,6.98
2023-04-08T05:55:28.426Z,7.00
2023-04-08T05:57:57.699Z,7.02
2023-04-08T06:00:27.424Z,7.07
2023-04-08T06:02:56.935Z,7.09
2023-04-08T06:05:26.841Z,7.16
2023-04-08T06:07:56.415Z,7.18
2023-04-08T06:10:25.754Z,7.23
2023-04-08T06:12:55.372Z,7.32
2023-04-08T06:15:24.631Z,7.21
2023-04-08T06:17:54.251Z,7.29
2023-04-08T06:20:23.670Z,7.37
2023-04-08T06:22:53.096Z,7.27
2023-04-08T06:25:22.375Z,7.43
2023-04-08T06:27:51.977Z,7.49
2023-04-08T06:30:22.158Z,7.55
2023-04-08T06:32:51.582Z,7.52
2023-04-08T06:35:21.442Z,7.52
2023-04-08T06:37:50.695Z,7.47
2023-04-08T06:40:20.444Z,7.32
2023-04-08T06:42:49.689Z,7.42
2023-04-08T06:45:21.622Z,7.23
2023-04-08T06:47:50.931Z,7.10
2023-04-08T06:50:20.449Z,7.07
2023-04-08T06:52:49.784Z,7.09
2023-04-08T06:55:19.554Z,7.03
2023-04-08T06:57:48.792Z,6.95
2023-04-08T07:00:19.018Z,7.01
2023-04-08T07:02:48.356Z,6.91
2023-04-08T07:05:18.417Z,6.78
2023-04-08T07:07:47.664Z,6.69
2023-04-08T07:10:17.339Z,6.55
2023-04-08T07:12:46.699Z,6.54
2023-04-08T07:15:16.145Z,6.27
2023-04-08T07:17:46.332Z,6.24
2023-04-08T07:20:16.780Z,6.15
2023-04-08T07:22:46.251Z,6.11
2023-04-08T07:25:16.094Z,6.11
2023-04-08T07:27:45.633Z,6.09
2023-04-08T07:30:15.647Z,6.27
2023-04-08T07:32:44.958Z,6.19
2023-04-08T07:35:14.292Z,6.24
2023-04-08T07:37:43.883Z,6.24
2023-04-08T07:40:13.947Z,6.14
2023-04-08T07:42:43.578Z,5.98
2023-04-08T07:45:13.133Z,6.08
2023-04-08T07:47:42.417Z,6.25
2023-04-08T07:50:12.447Z,6.26
2023-04-08T07:52:41.731Z,6.39
2023-04-08T07:55:11.682Z,6.41
2023-04-08T07:57:40.945Z,6.40
2023-04-08T08:00:11.226Z,6.70
2023-04-08T08:02:43.413Z,6.67
2023-04-08T08:05:12.801Z,6.50
2023-04-08T08:07:42.177Z,6.66
2023-04-08T08:10:11.978Z,6.73
2023-04-08T08:12:41.921Z,6.36
2023-04-08T08:15:11.782Z,6.33
2023-04-08T08:17:41.745Z,6.41
2023-04-08T08:20:12.172Z,6.64
2023-04-08T08:22:50.813Z,6.72
2023-04-08T08:25:13.587Z,6.82
2023-04-08T08:27:43.005Z,6.81
2023-04-08T08:30:12.810Z,6.96
2023-04-08T08:32:42.165Z,7.16
2023-04-08T08:35:11.830Z,7.19
2023-04-08T08:37:41.797Z,7.29
2023-04-08T08:40:11.979Z,6.83
2023-04-08T08:42:41.917Z,7.00
2023-04-08T08:45:11.500Z,7.01
2023-04-08T08:47:40.808Z,6.97
2023-04-08T08:50:11.025Z,6.82
2023-04-08T08:52:40.490Z,7.10
2023-04-08T08:55:26.987Z,7.18
2023-04-08T08:57:41.253Z,7.02
2023-04-08T09:00:11.228Z,7.03
2023-04-08T09:02:40.768Z,6.95
2023-04-08T09:05:10.676Z,7.08
2023-04-08T09:07:40.944Z,6.88
2023-04-08T09:10:10.757Z,6.67
2023-04-08T09:12:49.022Z,7.03
2023-04-08T09:15:18.573Z,7.29
2023-04-08T09:17:48.158Z,7.35
2023-04-08T09:20:17.696Z,7.58
2023-04-08T09:22:58.889Z,7.58
2023-04-08T09:25:30.853Z,7.57
2023-04-08T09:28:02.435Z,7.67
2023-04-08T09:30:33.361Z,7.52
2023-04-08T09:33:04.490Z,7.37
2023-04-08T09:35:33.838Z,7.83
2023-04-08T09:38:03.441Z,7.96
2023-04-08T09:40:36.820Z,7.84
2023-04-08T09:43:07.071Z,7.89
2023-04-08T09:45:38.157Z,8.09
2023-04-08T09:48:16.249Z,8.11
2023-04-08T09:50:50.474Z,8.39
2023-04-08T09:53:26.526Z,8.79
2023-04-08T09:55:57.677Z,9.03
2023-04-08T09:58:31.392Z,9.27
2023-04-08T10:01:01.299Z,9.05
2023-04-08T10:03:36.187Z,8.95
2023-04-08T10:06:06.370Z,9.40
2023-04-08T10:08:36.420Z,9.64
2023-04-08T10:11:06.434Z,10.26
2023-04-08T10:13:36.006Z,10.30
2023-04-08T10:16:27.244Z,10.76
2023-04-08T10:18:57.438Z,11.01
2023-04-08T10:21:41.207Z,11.60
2023-04-08T10:26:44.909Z,12.20
2023-04-08T10:29:29.173Z,12.78
2023-04-08T10:31:58.554Z,13.90
2023-04-08T10:34:28.647Z,14.15
2023-04-08T10:36:59.580Z,13.21
2023-04-08T10:39:28.905Z,14.32
2023-04-08T10:41:58.550Z,14.75
2023-04-08T10:44:29.680Z,15.99
2023-04-08T10:47:02.243Z,17.40
2023-04-08T10:49:34.464Z,16.35
2023-04-08T10:52:09.339Z,16.71
2023-04-08T10:54:39.522Z,16.42
2023-04-08T10:57:08.960Z,17.80
2023-04-08T10:59:39.830Z,18.31
2023-04-08T11:02:12.439Z,15.92
2023-04-08T11:04:44.634Z,16.78
2023-04-08T11:07:15.484Z,16.77
2023-04-08T11:09:45.058Z,17.75
2023-04-08T11:12:18.657Z,19.13
2023-04-08T11:14:49.630Z,20.03
2023-04-08T11:17:19.575Z,19.28
2023-04-08T11:19:48.966Z,19.46
2023-04-08T11:22:18.960Z,19.43
2023-04-08T11:24:48.887Z,19.86
2023-04-08T11:27:18.513Z,19.98
2023-04-08T11:29:48.088Z,20.03
2023-04-08T11:32:17.507Z,19.54
2023-04-08T11:34:48.710Z,19.52
2023-04-08T11:37:18.579Z,19.64
2023-04-08T11:39:48.319Z,18.16
2023-04-08T11:42:32.186Z,18.80
2023-04-08T11:45:01.829Z,20.02
2023-04-08T11:47:34.706Z,18.78
2023-04-08T11:50:04.536Z,19.58
2023-04-08T11:52:47.540Z,18.80
2023-04-08T11:55:29.079Z,19.04
2023-04-08T11:58:01.947Z,18.91
2023-04-08T12:00:33.130Z,18.75
2023-04-08T12:03:02.974Z,19.90
2023-04-08T12:05:32.661Z,20.35
2023-04-08T12:08:01.945Z,20.48
2023-04-08T12:10:31.441Z,21.14
2023-04-08T12:13:00.739Z,19.86
2023-04-08T12:15:31.041Z,20.54
2023-04-08T12:18:00.544Z,20.90
2023-04-08T12:20:30.419Z,20.47
2023-04-08T12:22:59.794Z,20.64
2023-04-08T12:25:29.189Z,20.94
2023-04-08T12:27:58.451Z,19.25
2023-04-08T12:30:27.732Z,18.64
2023-04-08T12:32:57.959Z,19.02
2023-04-08T12:35:27.340Z,17.54
2023-04-08T12:37:56.754Z,18.00
2023-04-08T12:40:26.739Z,19.09
2023-04-08T12:42:56.033Z,19.82
2023-04-08T12:45:25.484Z,20.11
2023-04-08T12:47:54.827Z,20.24
2023-04-08T12:50:24.455Z,20.11
2023-04-08T12:52:53.782Z,20.09
2023-04-08T12:55:24.680Z,20.31
2023-04-08T12:57:54.265Z,19.66
2023-04-08T13:00:23.803Z,19.47
2023-04-08T13:02:53.209Z,19.32
2023-04-08T13:05:32.839Z,20.10
2023-04-08T13:07:53.970Z,18.89
2023-04-08T13:10:23.481Z,19.26
2023-04-08T13:12:52.956Z,19.58
2023-04-08T13:15:22.338Z,19.35
2023-04-08T13:17:51.901Z,19.75
2023-04-08T13:20:22.916Z,19.71
2023-04-08T13:22:53.296Z,19.11
2023-04-08T13:25:22.784Z,19.58
2023-04-08T13:27:52.058Z,19.43
2023-04-08T13:30:21.314Z,18.76
2023-04-08T13:32:50.941Z,18.06
2023-04-08T13:35:20.968Z,19.21
2023-04-08T13:37:50.686Z,19.48
2023-04-08T13:40:20.025Z,18.55
2023-04-08T13:42:49.504Z,19.48
2023-04-08T13:45:19.471Z,19.69
2023-04-08T13:47:48.830Z,19.65
2023-04-08T13:50:18.419Z,19.60
2023-04-08T13:52:47.710Z,20.42
2023-04-08T13:55:17.353Z,19.82
2023-04-08T13:57:46.703Z,19.13
2023-04-08T14:00:16.581Z,18.66
2023-04-08T14:02:46.101Z,18.97
2023-04-08T14:05:16.116Z,19.15
2023-04-08T14:07:45.775Z,18.22
2023-04-08T14:10:16.525Z,17.97
2023-04-08T14:12:46.742Z,18.19
2023-04-08T14:15:16.351Z,18.35
2023-04-08T14:17:46.049Z,19.09
2023-04-08T14:20:15.564Z,18.30
2023-04-08T14:22:44.888Z,17.65
2023-04-08T14:25:14.232Z,17.67
2023-04-08T14:27:56.704Z,16.97
2023-04-08T14:30:15.394Z,15.97
2023-04-08T14:32:44.729Z,15.84
2023-04-08T14:35:14.030Z,15.95
2023-04-08T14:37:43.398Z,16.00
2023-04-08T14:40:13.308Z,15.46
2023-04-08T14:42:42.815Z,15.37
2023-04-08T14:45:13.340Z,15.33
2023-04-08T14:47:43.081Z,15.30
2023-04-08T14:50:12.726Z,15.27
2023-04-08T14:52:42.162Z,15.73
2023-04-08T14:55:11.557Z,15.59
2023-04-08T14:57:41.236Z,15.35
2023-04-08T15:00:11.468Z,15.20
2023-04-08T15:02:41.587Z,15.22
2023-04-08T15:05:11.161Z,15.16
2023-04-08T15:07:40.924Z,14.98
2023-04-08T15:10:10.719Z,14.76
2023-04-08T15:12:40.203Z,14.99
2023-04-08T15:15:10.605Z,15.10
2023-04-08T15:17:40.223Z,15.04
2023-04-08T15:20:10.456Z,16.06
2023-04-08T15:22:40.167Z,16.89
2023-04-08T15:25:10.693Z,17.83
2023-04-08T15:27:40.858Z,18.72
2023-04-08T15:30:12.282Z,17.97
2023-04-08T15:32:42.277Z,17.83
2023-04-08T15:35:12.129Z,18.05
2023-04-08T15:37:41.412Z,19.00
2023-04-08T15:40:11.273Z,18.09
2023-04-08T15:42:40.853Z,18.30
2023-04-08T15:45:11.408Z,18.56
2023-04-08T15:47:41.976Z,18.27
2023-04-08T15:50:12.024Z,17.38
2023-04-08T15:52:41.916Z,17.55
2023-04-08T15:55:11.746Z,17.22
2023-04-08T15:57:41.424Z,17.06
2023-04-08T16:00:11.856Z,17.89
2023-04-08T16:02:43.226Z,17.48
2023-04-08T16:05:13.291Z,17.22
2023-04-08T16:07:42.944Z,16.67
2023-04-08T16:10:12.338Z,16.72
2023-04-08T16:12:42.029Z,16.48
2023-04-08T16:15:12.034Z,15.68
2023-04-08T16:17:41.464Z,16.02
2023-04-08T16:20:11.582Z,14.93
2023-04-08T16:22:41.505Z,14.78
2023-04-08T16:25:10.988Z,14.57
2023-04-08T16:27:40.382Z,14.59
2023-04-08T16:30:10.548Z,14.51
2023-04-08T16:32:40.340Z,14.78
2023-04-08T16:35:10.409Z,14.82
2023-04-08T16:37:39.900Z,14.71
2023-04-08T16:40:10.069Z,14.72
2023-04-08T16:42:39.580Z,14.52
2023-04-08T16:45:09.800Z,14.56
2023-04-08T16:47:40.880Z,14.72
2023-04-08T16:50:10.416Z,14.80
2023-04-08T16:52:40.367Z,13.98
2023-04-08T16:55:11.253Z,13.40
2023-04-08T16:57:41.499Z,13.43
2023-04-08T17:00:11.685Z,13.08
2023-04-08T17:02:41.579Z,12.97
2023-04-08T17:05:11.339Z,12.63
2023-04-08T17:07:40.717Z,12.63
2023-04-08T17:10:11.107Z,12.60
2023-04-08T17:12:40.840Z,12.43
2023-04-08T17:15:11.376Z,12.21
2023-04-08T17:17:41.080Z,12.03
2023-04-08T17:20:11.517Z,11.88
2023-04-08T17:22:40.930Z,11.80
2023-04-08T17:25:11.792Z,11.68
2023-04-08T17:27:41.383Z,11.47
2023-04-08T17:30:11.877Z,11.54
2023-04-08T17:32:41.168Z,11.24
2023-04-08T17:35:11.534Z,11.14
2023-04-08T17:37:40.893Z,10.94
2023-04-08T17:40:10.898Z,10.92
2023-04-08T17:42:40.315Z,10.90
2023-04-08T17:45:10.658Z,10.77
2023-04-08T17:47:39.988Z,10.65
2023-04-08T17:50:11.737Z,10.51
2023-04-08T17:52:48.346Z,10.42
2023-04-08T17:55:18.344Z,10.26
2023-04-08T17:57:49.232Z,10.11
2023-04-08T18:00:18.889Z,10.01
2023-04-08T18:02:50.343Z,9.90
2023-04-08T18:05:20.667Z,9.77
2023-04-08T18:07:50.290Z,9.62
2023-04-08T18:10:19.819Z,9.53
2023-04-08T18:12:50.734Z,9.51
2023-04-08T18:15:20.094Z,9.39
2023-04-08T18:17:49.477Z,9.24
2023-04-08T18:20:19.344Z,9.15
2023-04-08T18:22:49.183Z,9.15
2023-04-08T18:25:20.876Z,9.11
2023-04-08T18:27:51.389Z,8.99
2023-04-08T18:30:20.687Z,8.86
2023-04-08T18:32:50.160Z,8.80
2023-04-08T18:35:19.805Z,8.77
2023-04-08T18:37:49.436Z,8.66
2023-04-08T18:40:18.923Z,8.66
2023-04-08T18:42:48.423Z,8.60
2023-04-08T18:45:17.895Z,8.47
2023-04-08T18:47:47.596Z,8.37
2023-04-08T18:50:16.979Z,8.37
2023-04-08T18:52:46.441Z,8.34
2023-04-08T18:55:15.862Z,8.34
2023-04-08T18:57:45.605Z,8.27
2023-04-08T19:00:15.628Z,8.20
2023-04-08T19:02:45.016Z,8.07
2023-04-08T19:05:14.757Z,8.04
2023-04-08T19:07:44.532Z,7.95
2023-04-08T19:10:13.838Z,7.95
2023-04-08T19:12:43.794Z,7.86
2023-04-08T19:15:13.671Z,7.87
2023-04-08T19:17:43.368Z,7.82
2023-04-08T19:20:13.170Z,7.81
2023-04-08T19:22:42.500Z,7.75
2023-04-08T19:25:11.859Z,7.75
2023-04-08T19:27:41.800Z,7.69
2023-04-08T19:30:13.576Z,7.63
2023-04-08T19:32:43.239Z,7.55
2023-04-08T19:35:16.041Z,7.39
2023-04-08T19:37:45.711Z,7.37
2023-04-08T19:40:15.220Z,7.29
2023-04-08T19:42:46.167Z,7.30
2023-04-08T19:45:15.820Z,7.26
2023-04-08T19:47:45.280Z,7.27
2023-04-08T19:50:14.725Z,7.25
2023-04-08T19:52:44.811Z,7.11
2023-04-08T19:55:14.922Z,7.06
2023-04-08T19:57:45.131Z,6.99
2023-04-08T20:00:14.631Z,6.96
2023-04-08T20:02:44.445Z,7.09
2023-04-08T20:05:15.626Z,7.11
2023-04-08T20:07:45.196Z,7.15
2023-04-08T20:10:14.611Z,7.07
2023-04-08T20:12:43.966Z,7.00
2023-04-08T20:15:23.531Z,6.86
2023-04-08T20:17:44.933Z,6.86
2023-04-08T20:20:14.943Z,6.87
2023-04-08T20:22:45.917Z,6.82
2023-04-08T20:25:15.299Z,6.80
2023-04-08T20:27:44.756Z,6.84
2023-04-08T20:30:14.315Z,6.88
2023-04-08T20:32:44.326Z,6.83
2023-04-08T20:35:13.881Z,6.84
2023-04-08T20:37:43.537Z,6.93
2023-04-08T20:40:13.993Z,6.87
2023-04-08T20:42:44.044Z,6.80
2023-04-08T20:45:13.671Z,6.70
2023-04-08T20:47:44.742Z,6.71
2023-04-08T20:50:14.355Z,6.64
2023-04-08T20:52:55.208Z,6.47
2023-04-08T20:55:29.006Z,6.49
2023-04-08T20:58:00.481Z,6.49
2023-04-08T21:00:31.892Z,6.65
2023-04-08T21:03:01.262Z,6.52
2023-04-08T21:05:30.879Z,6.36
2023-04-08T21:08:00.301Z,6.51
2023-04-08T21:10:29.923Z,6.52
2023-04-08T21:13:01.097Z,6.51
2023-04-08T21:15:31.542Z,6.66
2023-04-08T21:18:01.100Z,6.74
2023-04-08T21:20:30.848Z,6.82
2023-04-08T21:23:00.822Z,6.87
2023-04-08T21:25:32.853Z,6.94
2023-04-08T21:28:02.196Z,7.04
2023-04-08T21:30:31.855Z,7.08
2023-04-08T21:33:01.540Z,7.14
2023-04-08T21:35:31.592Z,7.20
2023-04-08T21:38:00.996Z,7.19
2023-04-08T21:40:30.481Z,7.25
2023-04-08T21:42:59.806Z,7.25
2023-04-08T21:45:29.178Z,7.26
2023-04-08T21:47:58.773Z,7.36
2023-04-08T21:50:28.155Z,7.35
2023-04-08T21:52:57.429Z,7.39
2023-04-08T21:55:27.445Z,7.45
2023-04-08T21:57:56.932Z,7.49
2023-04-08T22:00:26.986Z,7.56
2023-04-08T22:02:56.408Z,7.57
2023-04-08T22:05:25.902Z,7.63
2023-04-08T22:07:55.444Z,7.65
2023-04-08T22:10:24.944Z,7.67
2023-04-08T22:12:54.219Z,7.72
2023-04-08T22:15:23.654Z,7.70
2023-04-08T22:17:53.367Z,7.79
2023-04-08T22:20:22.903Z,7.75
2023-04-08T22:22:52.302Z,7.79
2023-04-08T22:25:21.703Z,7.78
2023-04-08T22:27:51.448Z,7.83
2023-04-08T22:30:21.463Z,7.79
2023-04-08T22:32:50.710Z,7.70
2023-04-08T22:35:20.499Z,7.67
2023-04-08T22:37:49.756Z,7.67
2023-04-08T22:40:19.232Z,7.62
2023-04-08T22:42:48.519Z,7.71
2023-04-08T22:45:17.792Z,7.70
2023-04-08T22:47:47.074Z,7.70
2023-04-08T22:50:17.138Z,7.74
2023-04-08T22:52:46.388Z,7.74
2023-04-08T22:55:15.692Z,7.77
2023-04-08T22:57:45.004Z,7.75
2023-04-08T23:00:16.601Z,7.76
2023-04-08T23:02:45.983Z,7.77
2023-04-08T23:05:15.523Z,7.78
2023-04-08T23:07:44.787Z,7.79
2023-04-08T23:10:14.105Z,7.85
2023-04-08T23:12:43.357Z,7.86
2023-04-08T23:15:12.695Z,7.88
2023-04-08T23:17:42.027Z,7.87
2023-04-08T23:20:12.341Z,7.89
2023-04-08T23:22:41.861Z,7.90
2023-04-08T23:25:11.798Z,7.90
2023-04-08T23:27:41.073Z,7.96
2023-04-08T23:30:11.272Z,7.89
2023-04-08T23:32:40.593Z,7.84
2023-04-08T23:35:10.228Z,7.87
2023-04-08T23:37:39.771Z,7.91
2023-04-08T23:40:10.200Z,7.91
2023-04-08T23:42:39.504Z,7.90
2023-04-08T23:45:09.522Z,7.93
2023-04-08T23:47:38.872Z,7.93
2023-04-08T23:50:09.679Z,7.96
2023-04-08T23:52:38.956Z,8.07
2023-04-08T23:55:08.831Z,8.08
2023-04-08T23:57:38.118Z,8.17
